createdAt,value
2022-12-03T00:04:33.014Z,3.95
2022-12-03T00:09:36.998Z,3.85
2022-12-03T00:14:44.793Z,3.91
2022-12-03T00:19:49.008Z,3.69
2022-12-03T00:24:53.547Z,3.53
2022-12-03T00:29:59.126Z,3.51
2022-12-03T00:35:03.247Z,3.40
2022-12-03T00:40:09.989Z,3.49
2022-12-03T00:45:15.336Z,3.43
2022-12-03T00:50:19.435Z,3.48
2022-12-03T00:55:23.485Z,3.57
2022-12-03T01:00:29.147Z,3.61
2022-12-03T01:05:33.288Z,3.59
2022-12-03T01:10:37.293Z,3.60
2022-12-03T01:15:42.772Z,3.59
2022-12-03T01:20:46.795Z,3.47
2022-12-03T01:25:51.010Z,3.45
2022-12-03T01:31:13.724Z,3.45
2022-12-03T01:36:17.761Z,3.62
2022-12-03T01:41:23.702Z,3.40
2022-12-03T01:46:41.607Z,3.37
2022-12-03T01:51:46.184Z,3.44
2022-12-03T01:56:50.699Z,3.35
2022-12-03T02:01:56.182Z,3.43
2022-12-03T02:07:22.926Z,3.58
2022-12-03T02:12:31.446Z,3.53
2022-12-03T02:17:37.190Z,3.36
2022-12-03T02:22:49.652Z,3.33
2022-12-03T02:27:56.491Z,3.28
2022-12-03T02:33:01.056Z,3.36
2022-12-03T02:38:10.663Z,3.36
2022-12-03T02:43:17.960Z,3.48
2022-12-03T02:48:26.362Z,3.49
2022-12-03T02:53:32.764Z,3.56
2022-12-03T02:58:39.270Z,3.68
2022-12-03T03:03:43.754Z,3.48
2022-12-03T03:08:47.753Z,3.48
2022-12-03T03:13:53.151Z,3.47
2022-12-03T03:18:57.183Z,3.49
2022-12-03T03:24:01.384Z,3.40
2022-12-03T03:29:06.768Z,3.42
2022-12-03T03:34:11.605Z,3.54
2022-12-03T03:39:15.756Z,3.41
2022-12-03T03:44:21.238Z,3.27
2022-12-03T03:49:25.601Z,3.13
2022-12-03T03:54:29.800Z,3.10
2022-12-03T03:59:35.186Z,3.06
2022-12-03T04:04:39.448Z,2.98
2022-12-03T04:09:43.606Z,2.94
2022-12-03T04:14:49.173Z,2.96
2022-12-03T04:19:53.675Z,3.05
2022-12-03T04:25:17.661Z,3.28
2022-12-03T04:30:24.245Z,3.18
2022-12-03T04:35:43.794Z,3.19
2022-12-03T04:41:01.768Z,3.18
2022-12-03T04:46:07.479Z,3.12
2022-12-03T04:51:11.479Z,3.04
2022-12-03T04:56:15.485Z,3.09
2022-12-03T05:01:22.625Z,3.33
2022-12-03T05:06:26.751Z,3.29
2022-12-03T05:11:30.808Z,3.32
2022-12-03T05:16:36.632Z,3.40
2022-12-03T05:21:40.636Z,3.55
2022-12-03T05:26:44.600Z,3.68
2022-12-03T05:31:50.016Z,3.53
2022-12-03T05:36:53.960Z,3.66
2022-12-03T05:42:15.246Z,3.39
2022-12-03T05:47:20.647Z,3.33
2022-12-03T05:52:24.678Z,3.28
2022-12-03T05:57:28.699Z,3.22
2022-12-03T06:02:34.582Z,3.07
2022-12-03T06:07:39.025Z,3.15
2022-12-03T06:12:43.552Z,3.21
2022-12-03T06:17:48.970Z,3.25
2022-12-03T06:22:52.926Z,3.31
2022-12-03T06:27:56.952Z,3.34
2022-12-03T06:33:02.444Z,3.67
2022-12-03T06:38:06.607Z,3.77
2022-12-03T06:43:10.783Z,3.73
2022-12-03T06:48:16.347Z,3.77
2022-12-03T06:53:20.389Z,3.89
2022-12-03T06:58:24.392Z,4.00
2022-12-03T07:03:29.778Z,4.20
2022-12-03T07:08:33.711Z,3.98
2022-12-03T07:13:37.602Z,4.28
2022-12-03T07:18:42.907Z,4.55
2022-12-03T07:23:46.921Z,4.60
2022-12-03T07:28:50.829Z,4.68
2022-12-03T07:33:56.210Z,4.33
2022-12-03T07:39:00.185Z,4.41
2022-12-03T07:44:06.631Z,4.37
2022-12-03T07:49:16.468Z,4.27
2022-12-03T07:54:20.801Z,4.49
2022-12-03T07:59:24.819Z,4.58
2022-12-03T08:04:30.184Z,4.48
2022-12-03T08:09:34.101Z,4.61
2022-12-03T08:14:38.110Z,4.62
2022-12-03T08:19:47.892Z,4.70
2022-12-03T08:24:52.127Z,4.74
2022-12-03T08:30:04.601Z,4.84
2022-12-03T08:35:14.015Z,4.51
2022-12-03T08:40:24.599Z,4.96
2022-12-03T08:45:40.696Z,4.48
2022-12-03T08:50:46.683Z,4.82
2022-12-03T08:55:53.671Z,4.94
2022-12-03T09:01:00.020Z,4.71
2022-12-03T09:06:06.225Z,4.71
2022-12-03T09:11:10.268Z,5.04
2022-12-03T09:16:14.317Z,4.87
2022-12-03T09:21:19.689Z,5.05
2022-12-03T09:26:23.603Z,5.04
2022-12-03T09:31:27.647Z,4.96
2022-12-03T09:36:33.207Z,5.03
2022-12-03T09:41:37.403Z,5.07
2022-12-03T09:46:42.918Z,5.12
2022-12-03T09:51:49.015Z,5.07
2022-12-03T09:56:54.764Z,5.15
2022-12-03T10:01:59.392Z,5.44
2022-12-03T10:07:04.876Z,5.58
2022-12-03T10:12:13.064Z,5.45
2022-12-03T10:17:18.488Z,5.88
2022-12-03T10:22:23.933Z,5.96
2022-12-03T10:27:31.865Z,5.95
2022-12-03T10:32:42.337Z,6.08
2022-12-03T10:38:02.000Z,6.14
2022-12-03T10:43:21.675Z,6.08
2022-12-03T10:48:27.592Z,6.18
2022-12-03T10:53:35.947Z,6.32
2022-12-03T10:58:41.752Z,6.43
2022-12-03T11:03:46.607Z,6.51
2022-12-03T11:08:57.890Z,6.32
2022-12-03T11:14:03.846Z,6.67
2022-12-03T11:19:17.536Z,6.26
2022-12-03T11:24:23.419Z,6.62
2022-12-03T11:30:10.717Z,6.25
2022-12-03T11:35:15.849Z,6.41
2022-12-03T11:40:39.120Z,6.04
2022-12-03T11:45:43.762Z,6.25
2022-12-03T11:50:52.927Z,6.34
2022-12-03T11:56:09.186Z,6.36
2022-12-03T12:01:14.285Z,6.46
2022-12-03T12:06:20.548Z,6.68
2022-12-03T12:11:32.623Z,6.85
2022-12-03T12:16:46.238Z,6.18
2022-12-03T12:21:50.868Z,6.50
2022-12-03T12:26:56.667Z,6.45
2022-12-03T12:32:16.018Z,6.74
2022-12-03T12:37:22.515Z,7.02
2022-12-03T12:42:34.213Z,6.91
2022-12-03T12:47:38.484Z,6.79
2022-12-03T12:52:49.878Z,6.48
2022-12-03T12:58:01.585Z,6.64
2022-12-03T13:03:07.360Z,6.73
2022-12-03T13:08:22.324Z,6.58
2022-12-03T13:13:32.156Z,6.51
2022-12-03T13:18:41.663Z,6.28
2022-12-03T13:23:47.074Z,6.16
2022-12-03T13:28:52.935Z,6.15
2022-12-03T13:33:57.994Z,5.87
2022-12-03T13:39:02.218Z,6.18
2022-12-03T13:44:20.747Z,6.25
2022-12-03T13:49:25.636Z,6.25
2022-12-03T13:54:32.832Z,6.12
2022-12-03T13:59:38.150Z,6.04
2022-12-03T14:04:42.018Z,6.24
2022-12-03T14:09:45.902Z,5.59
2022-12-03T14:14:51.206Z,5.60
2022-12-03T14:19:55.207Z,5.51
2022-12-03T14:24:59.466Z,5.40
2022-12-03T14:30:05.312Z,5.23
2022-12-03T14:35:10.251Z,5.25
2022-12-03T14:40:21.029Z,5.21
2022-12-03T14:45:29.840Z,5.12
2022-12-03T14:50:33.988Z,5.10
2022-12-03T14:55:37.824Z,5.07
2022-12-03T15:00:43.276Z,5.12
2022-12-03T15:05:47.154Z,4.93
2022-12-03T15:10:51.015Z,4.86
2022-12-03T15:15:56.452Z,5.03
2022-12-03T15:21:00.285Z,5.05
2022-12-03T15:26:04.829Z,5.04
2022-12-03T15:31:10.194Z,4.93
2022-12-03T15:36:15.157Z,5.14
2022-12-03T15:41:29.151Z,5.15
2022-12-03T15:46:34.511Z,5.04
2022-12-03T15:51:38.362Z,5.19
2022-12-03T15:56:42.198Z,5.27
2022-12-03T16:01:47.676Z,5.32
2022-12-03T16:06:51.692Z,5.23
2022-12-03T16:11:55.622Z,5.23
2022-12-03T16:17:01.138Z,5.23
2022-12-03T16:22:05.446Z,5.20
2022-12-03T16:27:09.899Z,5.17
2022-12-03T16:32:15.218Z,5.22
2022-12-03T16:37:19.056Z,5.02
2022-12-03T16:42:25.053Z,5.05
2022-12-03T16:47:33.906Z,5.06
2022-12-03T16:52:38.324Z,5.04
2022-12-03T16:57:42.236Z,5.10
2022-12-03T17:02:47.410Z,4.95
2022-12-03T17:07:51.683Z,4.85
2022-12-03T17:13:11.194Z,4.96
2022-12-03T17:18:16.669Z,4.91
2022-12-03T17:23:20.736Z,4.85
2022-12-03T17:28:24.821Z,4.84
2022-12-03T17:33:30.141Z,4.93
2022-12-03T17:38:38.984Z,4.96
2022-12-03T17:43:43.399Z,4.91
2022-12-03T17:48:48.675Z,5.08
2022-12-03T17:53:52.542Z,5.05
2022-12-03T17:58:57.189Z,4.86
2022-12-03T18:04:02.425Z,4.55
2022-12-03T18:09:06.382Z,4.63
2022-12-03T18:14:10.488Z,4.76
2022-12-03T18:19:15.690Z,4.85
2022-12-03T18:24:19.511Z,4.87
2022-12-03T18:29:23.477Z,4.78
2022-12-03T18:34:28.804Z,4.96
2022-12-03T18:39:36.364Z,5.00
2022-12-03T18:44:43.737Z,4.88
2022-12-03T18:49:52.064Z,4.83
2022-12-03T18:54:57.714Z,4.89
2022-12-03T19:00:01.651Z,4.78
2022-12-03T19:05:08.210Z,4.75
2022-12-03T19:10:13.172Z,4.86
2022-12-03T19:15:17.754Z,4.85
2022-12-03T19:20:23.180Z,4.80
2022-12-03T19:25:27.184Z,4.64
2022-12-03T19:30:31.460Z,4.48
2022-12-03T19:35:41.563Z,4.50
2022-12-03T19:40:47.366Z,4.53
2022-12-03T19:45:55.552Z,4.49
2022-12-03T19:51:19.833Z,4.55
2022-12-03T19:56:27.376Z,4.51
2022-12-03T20:01:33.578Z,4.70
2022-12-03T20:06:39.433Z,4.79
2022-12-03T20:11:44.623Z,4.62
2022-12-03T20:16:48.679Z,4.47
2022-12-03T20:21:59.000Z,4.42
2022-12-03T20:27:06.183Z,4.40
2022-12-03T20:32:10.311Z,4.62
2022-12-03T20:37:15.506Z,4.65
2022-12-03T20:42:19.289Z,4.63
2022-12-03T20:47:23.301Z,4.64
2022-12-03T20:52:28.619Z,4.49
2022-12-03T20:57:32.677Z,4.54
2022-12-03T21:02:38.006Z,4.45
2022-12-03T21:07:43.464Z,4.44
2022-12-03T21:12:50.548Z,4.45
2022-12-03T21:17:54.779Z,4.39
2022-12-03T21:28:29.519Z,4.42
2022-12-03T21:33:35.495Z,4.56
2022-12-03T21:38:41.359Z,4.49
2022-12-03T21:43:46.146Z,4.45
2022-12-03T21:48:50.786Z,4.47
2022-12-03T21:53:56.334Z,4.36
2022-12-03T21:59:00.481Z,4.47
2022-12-03T22:04:04.765Z,4.51
2022-12-03T22:09:10.270Z,4.54
2022-12-03T22:14:14.584Z,4.48
2022-12-03T22:19:18.729Z,4.64
2022-12-03T22:24:24.352Z,4.61
2022-12-03T22:29:28.304Z,4.49
2022-12-03T22:34:32.904Z,4.49
2022-12-03T22:39:38.237Z,4.28
2022-12-03T22:44:42.271Z,4.48
2022-12-03T22:49:46.216Z,4.40
2022-12-03T22:54:52.146Z,4.40
2022-12-03T22:59:56.554Z,4.33
2022-12-03T23:05:00.821Z,4.37
2022-12-03T23:10:07.923Z,4.41
2022-12-03T23:15:14.518Z,4.57
2022-12-03T23:20:18.695Z,4.57
2022-12-03T23:25:24.277Z,4.48
2022-12-03T23:30:28.402Z,4.56
2022-12-03T23:35:32.596Z,4.52
2022-12-03T23:40:39.585Z,4.54
2022-12-03T23:45:45.237Z,4.64
2022-12-03T23:50:49.335Z,4.64
2022-12-03T23:55:54.791Z,4.46
